createdAt,value
2019-05-11T00:00:31.071Z,0.00
2019-05-11T00:01:31.028Z,0.00
2019-05-11T00:02:31.050Z,0.00
2019-05-11T00:03:31.005Z,0.00
2019-05-11T00:04:31.029Z,0.00
2019-05-11T00:05:31.004Z,0.00
2019-05-11T00:06:30.963Z,0.00
2019-05-11T00:07:30.968Z,0.00
2019-05-11T00:08:30.952Z,0.00
2019-05-11T00:09:30.941Z,0.00
2019-05-11T00:10:30.961Z,0.00
2019-05-11T00:11:30.926Z,0.00
2019-05-11T00:12:30.962Z,0.00
2019-05-11T00:13:30.920Z,0.00
2019-05-11T00:14:30.966Z,0.00
2019-05-11T00:15:30.913Z,0.00
2019-05-11T00:16:30.860Z,0.00
2019-05-11T00:17:30.859Z,0.00
2019-05-11T00:18:30.906Z,0.00
2019-05-11T00:19:30.861Z,0.00
2019-05-11T00:20:30.860Z,0.00
2019-05-11T00:21:30.809Z,0.00
2019-05-11T00:22:30.800Z,0.00
2019-05-11T00:23:30.803Z,0.00
2019-05-11T00:24:30.794Z,0.00
2019-05-11T00:25:30.794Z,0.00
2019-05-11T00:26:30.918Z,0.00
2019-05-11T00:27:30.756Z,0.00
2019-05-11T00:28:30.763Z,0.00
2019-05-11T00:29:30.815Z,0.00
2019-05-11T00:30:30.728Z,0.00
2019-05-11T00:31:30.736Z,0.00
2019-05-11T00:32:30.692Z,0.00
2019-05-11T00:33:30.700Z,0.00
2019-05-11T00:34:30.677Z,0.00
2019-05-11T00:35:30.694Z,0.00
2019-05-11T00:36:30.669Z,0.00
2019-05-11T00:37:30.641Z,0.00
2019-05-11T00:38:30.638Z,0.00
2019-05-11T00:39:30.640Z,0.00
2019-05-11T00:40:30.607Z,0.00
2019-05-11T00:42:40.056Z,0.00
2019-05-11T00:43:40.528Z,0.00
2019-05-11T00:44:39.887Z,0.00
2019-05-11T00:45:39.872Z,0.00
2019-05-11T00:46:39.859Z,0.00
2019-05-11T00:47:39.886Z,0.00
2019-05-11T00:48:39.837Z,0.00
2019-05-11T00:49:40.141Z,0.00
2019-05-11T00:50:40.161Z,0.00
2019-05-11T00:51:39.817Z,0.00
2019-05-11T00:52:39.835Z,0.00
2019-05-11T00:53:39.794Z,0.00
2019-05-11T00:54:39.790Z,0.00
2019-05-11T00:55:39.781Z,0.00
2019-05-11T00:56:39.877Z,0.00
2019-05-11T00:57:39.963Z,0.00
2019-05-11T00:58:39.845Z,0.00
2019-05-11T00:59:39.805Z,0.00
2019-05-11T01:00:39.711Z,0.00
2019-05-11T01:01:39.698Z,0.00
2019-05-11T01:02:39.716Z,0.00
2019-05-11T01:03:39.683Z,0.00
2019-05-11T01:04:39.705Z,0.00
2019-05-11T01:05:39.687Z,0.00
2019-05-11T01:06:39.671Z,0.00
2019-05-11T01:07:39.647Z,0.00
2019-05-11T01:08:39.647Z,0.00
2019-05-11T01:09:39.774Z,0.00
2019-05-11T01:10:42.398Z,0.00
2019-05-11T01:11:39.603Z,0.00
2019-05-11T01:12:39.618Z,0.00
2019-05-11T01:13:39.612Z,0.00
2019-05-11T01:14:39.687Z,0.00
2019-05-11T01:15:39.619Z,0.00
2019-05-11T01:16:39.546Z,0.00
2019-05-11T01:17:39.546Z,0.00
2019-05-11T01:18:39.851Z,0.00
2019-05-11T01:19:39.507Z,0.00
2019-05-11T01:20:39.519Z,0.00
2019-05-11T01:21:39.511Z,0.00
2019-05-11T01:22:39.517Z,0.00
2019-05-11T01:23:39.471Z,0.00
2019-05-11T01:24:39.500Z,0.00
2019-05-11T01:25:39.449Z,0.00
2019-05-11T01:26:39.436Z,0.00
2019-05-11T01:27:39.452Z,0.00
2019-05-11T01:28:39.427Z,0.00
2019-05-11T01:29:39.451Z,0.00
2019-05-11T01:30:39.677Z,0.00
2019-05-11T01:31:39.384Z,0.00
2019-05-11T01:32:39.377Z,0.00
2019-05-11T01:33:39.378Z,0.00
2019-05-11T01:34:39.393Z,0.00
2019-05-11T01:35:39.335Z,0.00
2019-05-11T01:36:39.335Z,0.00
2019-05-11T01:37:39.322Z,0.00
2019-05-11T01:38:39.419Z,0.00
2019-05-11T01:39:39.348Z,0.00
2019-05-11T01:40:39.283Z,0.00
2019-05-11T01:41:39.296Z,0.00
2019-05-11T01:42:39.272Z,0.00
2019-05-11T01:43:39.264Z,0.00
2019-05-11T01:44:39.292Z,0.00
2019-05-11T01:45:39.243Z,0.00
2019-05-11T01:46:39.230Z,0.00
2019-05-11T01:47:39.218Z,0.00
2019-05-11T01:48:39.234Z,0.00
2019-05-11T01:49:39.182Z,0.00
2019-05-11T01:50:39.200Z,0.00
2019-05-11T01:51:39.286Z,0.00
2019-05-11T01:52:39.168Z,0.00
2019-05-11T01:53:39.167Z,0.00
2019-05-11T01:54:39.144Z,0.00
2019-05-11T01:55:39.282Z,0.00
2019-05-11T01:56:39.311Z,0.00
2019-05-11T01:57:39.198Z,0.00
2019-05-11T01:58:39.085Z,0.00
2019-05-11T01:59:39.079Z,0.00
2019-05-11T02:00:39.088Z,0.00
2019-05-11T02:01:39.072Z,0.00
2019-05-11T02:02:39.068Z,0.00
2019-05-11T02:03:39.050Z,0.00
2019-05-11T02:04:39.044Z,0.00
2019-05-11T02:05:39.060Z,0.00
2019-05-11T02:06:39.016Z,0.00
2019-05-11T02:07:38.994Z,0.00
2019-05-11T02:08:38.976Z,0.00
2019-05-11T02:09:38.999Z,0.00
2019-05-11T02:10:38.994Z,0.00
2019-05-11T02:11:38.956Z,0.00
2019-05-11T02:12:38.959Z,0.00
2019-05-11T02:13:38.948Z,0.00
2019-05-11T02:14:38.929Z,0.00
2019-05-11T02:15:38.931Z,0.00
2019-05-11T02:16:38.926Z,0.00
2019-05-11T02:17:38.892Z,0.00
2019-05-11T02:18:38.876Z,0.00
2019-05-11T02:19:38.873Z,0.00
2019-05-11T02:20:38.850Z,0.00
2019-05-11T02:21:38.870Z,0.00
2019-05-11T02:22:38.840Z,0.00
2019-05-11T02:23:38.830Z,0.00
2019-05-11T02:24:38.821Z,0.00
2019-05-11T02:25:38.817Z,0.00
2019-05-11T02:26:38.820Z,0.00
2019-05-11T02:27:38.800Z,0.00
2019-05-11T02:28:38.772Z,0.00
2019-05-11T02:29:41.503Z,0.00
2019-05-11T02:30:38.761Z,0.00
2019-05-11T02:31:38.747Z,0.00
2019-05-11T02:32:38.816Z,0.00
2019-05-11T02:33:38.725Z,0.00
2019-05-11T02:34:38.980Z,0.00
2019-05-11T02:35:38.702Z,0.00
2019-05-11T02:36:38.697Z,0.00
2019-05-11T02:37:38.715Z,0.00
2019-05-11T02:38:38.689Z,0.00
2019-05-11T02:39:38.651Z,0.00
2019-05-11T02:40:38.665Z,0.00
2019-05-11T02:41:38.641Z,0.00
2019-05-11T02:42:38.652Z,0.00
2019-05-11T02:43:38.629Z,0.00
2019-05-11T02:44:38.606Z,0.00
2019-05-11T02:45:38.622Z,0.00
2019-05-11T02:46:38.634Z,0.00
2019-05-11T02:47:38.579Z,0.00
2019-05-11T02:48:38.573Z,0.00
2019-05-11T02:49:38.552Z,0.00
2019-05-11T02:50:38.582Z,0.00
2019-05-11T02:51:38.529Z,0.00
2019-05-11T02:52:38.548Z,0.00
2019-05-11T02:53:38.534Z,0.00
2019-05-11T02:54:38.510Z,0.00
2019-05-11T02:55:38.500Z,0.00
2019-05-11T02:56:38.470Z,4.00
2019-05-11T02:57:38.483Z,4.00
2019-05-11T02:58:38.473Z,4.00
2019-05-11T02:59:38.460Z,0.00
2019-05-11T03:00:38.444Z,0.00
2019-05-11T03:01:38.418Z,4.00
2019-05-11T03:02:38.543Z,4.00
2019-05-11T03:03:38.566Z,0.00
2019-05-11T03:04:38.407Z,4.00
2019-05-11T03:05:38.415Z,4.00
2019-05-11T03:06:38.388Z,4.00
2019-05-11T03:07:38.491Z,8.00
2019-05-11T03:08:38.464Z,8.00
2019-05-11T03:09:38.368Z,8.00
2019-05-11T03:10:38.341Z,8.00
2019-05-11T03:11:54.277Z,8.00
2019-05-11T03:12:39.297Z,12.00
2019-05-11T03:13:38.302Z,12.00
2019-05-11T03:14:38.308Z,12.00
2019-05-11T03:15:38.276Z,16.00
2019-05-11T03:16:38.273Z,20.00
2019-05-11T03:17:38.269Z,20.00
2019-05-11T03:18:38.251Z,24.00
2019-05-11T03:19:38.257Z,28.00
2019-05-11T03:20:38.238Z,32.00
2019-05-11T03:21:38.223Z,36.00
2019-05-11T03:22:38.198Z,40.00
2019-05-11T03:23:38.195Z,44.00
2019-05-11T03:24:38.237Z,52.00
2019-05-11T03:25:38.172Z,56.00
2019-05-11T03:26:38.173Z,60.00
2019-05-11T03:27:38.150Z,72.00
2019-05-11T03:28:38.145Z,80.00
2019-05-11T03:29:38.132Z,92.00
2019-05-11T03:30:38.173Z,104.00
2019-05-11T03:31:38.110Z,120.00
2019-05-11T03:32:38.108Z,128.00
2019-05-11T03:33:38.097Z,148.00
2019-05-11T03:34:38.097Z,168.00
2019-05-11T03:35:38.071Z,184.00
2019-05-11T03:36:38.087Z,196.00
2019-05-11T03:37:38.046Z,212.00
2019-05-11T03:38:38.031Z,224.00
2019-05-11T03:39:38.019Z,240.00
2019-05-11T03:40:38.009Z,264.00
2019-05-11T03:41:38.015Z,288.00
2019-05-11T03:42:38.006Z,316.00
2019-05-11T03:43:37.997Z,348.00
2019-05-11T03:44:37.979Z,392.00
2019-05-11T03:45:37.969Z,432.00
2019-05-11T03:46:37.975Z,452.00
2019-05-11T03:47:37.947Z,484.00
2019-05-11T03:48:37.932Z,520.00
2019-05-11T03:49:38.020Z,564.00
2019-05-11T03:50:37.905Z,608.00
2019-05-11T03:51:37.932Z,668.00
2019-05-11T03:52:37.899Z,736.00
2019-05-11T03:53:37.888Z,804.00
2019-05-11T03:54:37.881Z,860.00
2019-05-11T03:55:37.847Z,916.00
2019-05-11T03:56:37.865Z,972.00
2019-05-11T03:57:37.831Z,1020.00
2019-05-11T03:58:37.823Z,1068.00
2019-05-11T03:59:37.814Z,1116.00
2019-05-11T04:00:37.851Z,1160.00
2019-05-11T04:01:37.817Z,1204.00
2019-05-11T04:02:37.779Z,1244.00
2019-05-11T04:03:37.766Z,1284.00
2019-05-11T04:04:37.762Z,1332.00
2019-05-11T04:05:37.753Z,1376.00
2019-05-11T04:06:37.763Z,1408.00
2019-05-11T04:07:37.718Z,1440.00
2019-05-11T04:08:37.708Z,1460.00
2019-05-11T04:09:37.709Z,1468.00
2019-05-11T04:10:37.693Z,1476.00
2019-05-11T04:11:37.688Z,1492.00
2019-05-11T04:12:37.697Z,1496.00
2019-05-11T04:13:37.654Z,1500.00
2019-05-11T04:14:37.655Z,1516.00
2019-05-11T04:15:37.650Z,1524.00
2019-05-11T04:16:37.633Z,1540.00
2019-05-11T04:17:37.650Z,1588.00
2019-05-11T04:18:37.641Z,1668.00
2019-05-11T04:19:37.608Z,1756.00
2019-05-11T04:20:37.577Z,1844.00
2019-05-11T04:21:37.580Z,1936.00
2019-05-11T04:22:37.565Z,2012.00
2019-05-11T04:23:37.572Z,2088.00
2019-05-11T04:24:37.560Z,2144.00
2019-05-11T04:25:37.545Z,2220.00
2019-05-11T04:26:37.523Z,2328.00
2019-05-11T04:27:37.529Z,2424.00
2019-05-11T04:28:37.512Z,2612.00
2019-05-11T04:29:37.497Z,2836.00
2019-05-11T04:30:37.490Z,2916.00
2019-05-11T04:31:37.462Z,3000.00
2019-05-11T04:32:37.510Z,3116.00
2019-05-11T04:33:37.458Z,3156.00
2019-05-11T04:34:37.437Z,3228.00
2019-05-11T04:35:37.434Z,3296.00
2019-05-11T04:36:37.432Z,3388.00
2019-05-11T04:37:37.412Z,3432.00
2019-05-11T04:38:37.409Z,3420.00
2019-05-11T04:39:37.392Z,3328.00
2019-05-11T04:40:37.361Z,3376.00
2019-05-11T04:41:37.375Z,3340.00
2019-05-11T04:42:53.539Z,3272.00
2019-05-11T04:43:38.371Z,3208.00
2019-05-11T04:44:37.327Z,3192.00
2019-05-11T04:45:37.317Z,3152.00
2019-05-11T04:46:37.317Z,3124.00
2019-05-11T04:47:37.294Z,3092.00
2019-05-11T04:48:37.287Z,3156.00
2019-05-11T04:49:37.304Z,3236.00
2019-05-11T04:50:37.260Z,3232.00
2019-05-11T04:51:37.267Z,3336.00
2019-05-11T04:52:37.252Z,3348.00
2019-05-11T04:53:37.235Z,3152.00
2019-05-11T04:54:37.241Z,3008.00
2019-05-11T04:55:37.245Z,3032.00
2019-05-11T04:56:37.212Z,3084.00
2019-05-11T04:57:37.190Z,3276.00
2019-05-11T04:58:37.184Z,3424.00
2019-05-11T04:59:37.177Z,3692.00
2019-05-11T05:00:37.183Z,3984.00
2019-05-11T05:01:37.154Z,4092.00
2019-05-11T05:02:37.133Z,4308.00
2019-05-11T05:03:40.800Z,4344.00
2019-05-11T05:04:37.107Z,4600.00
2019-05-11T05:05:37.122Z,4612.00
2019-05-11T05:06:38.922Z,5092.00
2019-05-11T05:07:37.090Z,5404.00
2019-05-11T05:08:37.072Z,5344.00
2019-05-11T05:09:42.948Z,5328.00
2019-05-11T05:10:38.077Z,5324.00
2019-05-11T05:11:38.442Z,5188.00
2019-05-11T05:12:37.039Z,5444.00
2019-05-11T05:13:37.028Z,5760.00
2019-05-11T05:14:37.009Z,6020.00
2019-05-11T05:15:37.001Z,6268.00
2019-05-11T05:16:37.008Z,6416.00
2019-05-11T05:17:36.966Z,6500.00
2019-05-11T05:18:36.967Z,6796.00
2019-05-11T05:19:36.964Z,6992.00
2019-05-11T05:20:36.944Z,7100.00
2019-05-11T05:21:36.967Z,7156.00
2019-05-11T05:22:36.925Z,7244.00
2019-05-11T05:23:37.026Z,7336.00
2019-05-11T05:25:46.729Z,7832.00
2019-05-11T05:26:46.752Z,8200.00
2019-05-11T05:27:46.767Z,8640.00
2019-05-11T05:28:46.701Z,9096.00
2019-05-11T05:29:46.700Z,9512.00
2019-05-11T05:30:46.692Z,9812.00
2019-05-11T05:31:46.665Z,10044.00
2019-05-11T05:32:46.682Z,10264.00
2019-05-11T05:33:46.650Z,10340.00
2019-05-11T05:34:46.628Z,10440.00
2019-05-11T05:35:46.627Z,10652.00
2019-05-11T05:36:46.625Z,10876.00
2019-05-11T05:37:46.716Z,10916.00
2019-05-11T05:38:46.598Z,11100.00
2019-05-11T05:39:46.601Z,11248.00
2019-05-11T05:40:46.570Z,11284.00
2019-05-11T05:41:56.741Z,11388.00
2019-05-11T05:42:47.577Z,11488.00
2019-05-11T05:43:46.559Z,11612.00
2019-05-11T05:44:46.735Z,11828.00
2019-05-11T05:45:46.541Z,12144.00
2019-05-11T05:46:46.527Z,12540.00
2019-05-11T05:47:46.524Z,12936.00
2019-05-11T05:48:46.535Z,13240.00
2019-05-11T05:49:46.495Z,13500.00
2019-05-11T05:50:46.507Z,13700.00
2019-05-11T05:51:46.465Z,13848.00
2019-05-11T05:52:46.503Z,14036.00
2019-05-11T05:53:46.451Z,14200.00
2019-05-11T05:54:46.457Z,14368.00
2019-05-11T05:55:46.426Z,14584.00
2019-05-11T05:56:46.455Z,14768.00
2019-05-11T05:57:46.423Z,15252.00
2019-05-11T05:58:46.427Z,15484.00
2019-05-11T05:59:46.404Z,15872.00
2019-05-11T06:00:46.387Z,15608.00
2019-05-11T06:01:46.391Z,15820.00
2019-05-11T06:02:46.370Z,16256.00
2019-05-11T06:03:46.383Z,16640.00
2019-05-11T06:04:46.370Z,17088.00
2019-05-11T06:05:46.337Z,17376.00
2019-05-11T06:06:46.320Z,17504.00
2019-05-11T06:07:46.289Z,17600.00
2019-05-11T06:08:46.273Z,17536.00
2019-05-11T06:09:46.318Z,17664.00
2019-05-11T06:10:46.290Z,17728.00
2019-05-11T06:11:46.290Z,17312.00
2019-05-11T06:12:46.339Z,16768.00
2019-05-11T06:13:46.263Z,16416.00
2019-05-11T06:14:46.265Z,16040.00
2019-05-11T06:15:46.268Z,15812.00
2019-05-11T06:16:46.220Z,15772.00
2019-05-11T06:17:46.217Z,15948.00
2019-05-11T06:18:46.231Z,16512.00
2019-05-11T06:19:46.211Z,17024.00
2019-05-11T06:20:46.166Z,17216.00
2019-05-11T06:21:46.142Z,17504.00
2019-05-11T06:22:46.148Z,17952.00
2019-05-11T06:23:46.140Z,18560.00
2019-05-11T06:24:46.187Z,19040.00
2019-05-11T06:25:46.117Z,19200.00
2019-05-11T06:26:46.170Z,19520.00
2019-05-11T06:27:46.091Z,19136.00
2019-05-11T06:28:46.089Z,19456.00
2019-05-11T06:29:46.099Z,20064.00
2019-05-11T06:30:46.150Z,20288.00
2019-05-11T06:31:46.067Z,20064.00
2019-05-11T06:32:46.035Z,20576.00
2019-05-11T06:33:46.070Z,20416.00
2019-05-11T06:34:46.068Z,20288.00
2019-05-11T06:35:46.054Z,20160.00
2019-05-11T06:36:46.013Z,20384.00
2019-05-11T06:37:46.027Z,20512.00
2019-05-11T06:38:45.980Z,20544.00
2019-05-11T06:39:45.945Z,20640.00
2019-05-11T06:40:45.989Z,20320.00
2019-05-11T06:41:54.085Z,19648.00
2019-05-11T06:42:45.917Z,19744.00
2019-05-11T06:44:00.826Z,19104.00
2019-05-11T06:44:46.873Z,19232.00
2019-05-11T06:45:45.865Z,18912.00
2019-05-11T06:46:45.871Z,19200.00
2019-05-11T06:47:45.852Z,19296.00
2019-05-11T06:48:45.834Z,18880.00
2019-05-11T06:49:45.818Z,19040.00
2019-05-11T06:50:45.844Z,20096.00
2019-05-11T06:51:45.838Z,21440.00
2019-05-11T06:52:45.813Z,23232.00
2019-05-11T06:53:45.801Z,23328.00
2019-05-11T06:54:45.762Z,23712.00
2019-05-11T06:55:45.757Z,26176.00
2019-05-11T06:56:45.755Z,25856.00
2019-05-11T06:57:45.797Z,25856.00
2019-05-11T06:58:45.809Z,27104.00
2019-05-11T06:59:45.758Z,30784.00
2019-05-11T07:00:45.762Z,27232.00
2019-05-11T07:01:45.697Z,27104.00
2019-05-11T07:02:45.738Z,25824.00
2019-05-11T07:03:45.670Z,24960.00
2019-05-11T07:04:45.681Z,23456.00
2019-05-11T07:05:45.665Z,21664.00
2019-05-11T07:06:45.644Z,20608.00
2019-05-11T07:07:47.894Z,20064.00
2019-05-11T07:08:45.722Z,19872.00
2019-05-11T07:09:45.626Z,19968.00
2019-05-11T07:10:45.615Z,20640.00
2019-05-11T07:11:45.687Z,21152.00
2019-05-11T07:12:45.588Z,21440.00
2019-05-11T07:13:45.608Z,21344.00
2019-05-11T07:14:45.564Z,21440.00
2019-05-11T07:15:45.568Z,21248.00
2019-05-11T07:16:45.550Z,20864.00
2019-05-11T07:17:45.552Z,20128.00
2019-05-11T07:18:45.548Z,19872.00
2019-05-11T07:19:47.532Z,19776.00
2019-05-11T07:20:50.394Z,19456.00
2019-05-11T07:21:46.486Z,19104.00
2019-05-11T07:22:45.488Z,18720.00
2019-05-11T07:23:45.460Z,18784.00
2019-05-11T07:24:45.516Z,19008.00
2019-05-11T07:25:45.456Z,19040.00
2019-05-11T07:26:45.442Z,18496.00
2019-05-11T07:27:45.431Z,18080.00
2019-05-11T07:28:45.414Z,17664.00
2019-05-11T07:29:45.420Z,16608.00
2019-05-11T07:30:45.382Z,16020.00
2019-05-11T07:31:45.398Z,16144.00
2019-05-11T07:32:45.363Z,16608.00
2019-05-11T07:33:45.342Z,17056.00
2019-05-11T07:34:45.375Z,17440.00
2019-05-11T07:35:47.712Z,17472.00
2019-05-11T07:36:47.573Z,17408.00
2019-05-11T07:37:47.717Z,17792.00
2019-05-11T07:38:45.304Z,17696.00
2019-05-11T07:39:45.306Z,16960.00
2019-05-11T07:40:47.531Z,16928.00
2019-05-11T07:41:45.299Z,17504.00
2019-05-11T07:42:45.258Z,18048.00
2019-05-11T07:43:45.257Z,18656.00
2019-05-11T07:44:47.947Z,17568.00
2019-05-11T07:45:45.254Z,16224.00
2019-05-11T07:46:45.212Z,16800.00
2019-05-11T07:47:45.244Z,17728.00
2019-05-11T07:48:45.201Z,18784.00
2019-05-11T07:49:45.183Z,19680.00
2019-05-11T07:50:45.174Z,20800.00
2019-05-11T07:51:45.179Z,20960.00
2019-05-11T07:52:45.140Z,21120.00
2019-05-11T07:53:45.135Z,21664.00
2019-05-11T07:54:45.148Z,20896.00
2019-05-11T07:55:45.168Z,19872.00
2019-05-11T07:56:45.140Z,17728.00
2019-05-11T07:57:45.091Z,15312.00
2019-05-11T07:58:45.127Z,14240.00
2019-05-11T07:59:45.072Z,14324.00
2019-05-11T08:00:45.111Z,14852.00
2019-05-11T08:01:45.070Z,15872.00
2019-05-11T08:02:45.101Z,16192.00
2019-05-11T08:03:45.049Z,15284.00
2019-05-11T08:04:45.025Z,15016.00
2019-05-11T08:05:45.015Z,15216.00
2019-05-11T08:06:45.063Z,15888.00
2019-05-11T08:07:45.078Z,16280.00
2019-05-11T08:08:44.977Z,16576.00
2019-05-11T08:09:45.021Z,16768.00
2019-05-11T08:10:44.972Z,15940.00
2019-05-11T08:11:44.965Z,16104.00
2019-05-11T08:12:44.959Z,18368.00
2019-05-11T08:13:44.952Z,17920.00
2019-05-11T08:14:58.904Z,18624.00
2019-05-11T08:15:45.969Z,19040.00
2019-05-11T08:16:44.926Z,19328.00
2019-05-11T08:17:44.926Z,18240.00
2019-05-11T08:18:44.910Z,16608.00
2019-05-11T08:19:44.899Z,17184.00
2019-05-11T08:20:44.849Z,16736.00
2019-05-11T08:21:44.859Z,16448.00
2019-05-11T08:22:44.828Z,16544.00
2019-05-11T08:23:44.848Z,17856.00
2019-05-11T08:24:44.814Z,17888.00
2019-05-11T08:25:44.788Z,18272.00
2019-05-11T08:26:44.843Z,18816.00
2019-05-11T08:27:44.775Z,17952.00
2019-05-11T08:28:44.783Z,17440.00
2019-05-11T08:29:44.775Z,18368.00
2019-05-11T08:30:44.767Z,17248.00
2019-05-11T08:31:44.725Z,17792.00
2019-05-11T08:32:44.721Z,17888.00
2019-05-11T08:33:44.766Z,17216.00
2019-05-11T08:34:44.733Z,16040.00
2019-05-11T08:35:44.696Z,15556.00
2019-05-11T08:36:44.673Z,14848.00
2019-05-11T08:37:44.671Z,14012.00
2019-05-11T08:38:44.663Z,13304.00
2019-05-11T08:39:44.666Z,11376.00
2019-05-11T08:40:44.639Z,9200.00
2019-05-11T08:41:44.645Z,8164.00
2019-05-11T08:42:44.645Z,8712.00
2019-05-11T08:43:44.617Z,9748.00
2019-05-11T08:44:44.632Z,8884.00
2019-05-11T08:45:44.619Z,8528.00
2019-05-11T08:46:44.613Z,8784.00
2019-05-11T08:47:44.579Z,8644.00
2019-05-11T08:48:44.557Z,8660.00
2019-05-11T08:49:44.543Z,8516.00
2019-05-11T08:50:44.603Z,8708.00
2019-05-11T08:51:44.519Z,9920.00
2019-05-11T08:52:44.498Z,11284.00
2019-05-11T08:53:44.487Z,13352.00
2019-05-11T08:54:44.498Z,14728.00
2019-05-11T08:55:44.509Z,15584.00
2019-05-11T08:56:44.595Z,14460.00
2019-05-11T08:57:44.476Z,14560.00
2019-05-11T08:58:44.444Z,13608.00
2019-05-11T08:59:44.445Z,15716.00
2019-05-11T09:00:44.449Z,16832.00
2019-05-11T09:01:44.815Z,17280.00
2019-05-11T09:02:46.905Z,23200.00
2019-05-11T09:03:47.622Z,27904.00
2019-05-11T09:04:44.396Z,26944.00
2019-05-11T09:05:44.436Z,28384.00
2019-05-11T09:06:44.354Z,30816.00
2019-05-11T09:07:44.392Z,28320.00
2019-05-11T09:08:44.356Z,24800.00
2019-05-11T09:09:44.315Z,27008.00
2019-05-11T09:10:44.379Z,28352.00
2019-05-11T09:11:44.303Z,26272.00
2019-05-11T09:12:44.316Z,24160.00
2019-05-11T09:13:44.279Z,27264.00
2019-05-11T09:14:44.395Z,27232.00
2019-05-11T09:15:44.265Z,23072.00
2019-05-11T09:16:44.262Z,24672.00
2019-05-11T09:17:44.232Z,22112.00
2019-05-11T09:18:44.240Z,19456.00
2019-05-11T09:19:44.228Z,16608.00
2019-05-11T09:20:44.232Z,19200.00
2019-05-11T09:21:44.490Z,17024.00
2019-05-11T09:22:44.474Z,16608.00
2019-05-11T09:23:44.186Z,16256.00
2019-05-11T09:24:44.172Z,15616.00
2019-05-11T09:25:44.146Z,15184.00
2019-05-11T09:26:44.164Z,16224.00
2019-05-11T09:27:44.178Z,17120.00
2019-05-11T09:28:44.124Z,18176.00
2019-05-11T09:29:44.168Z,18720.00
2019-05-11T09:30:44.114Z,18848.00
2019-05-11T09:31:44.088Z,19424.00
2019-05-11T09:32:44.097Z,21920.00
2019-05-11T09:33:44.079Z,22816.00
2019-05-11T09:34:44.065Z,22688.00
2019-05-11T09:35:50.050Z,22560.00
2019-05-11T09:36:45.047Z,21600.00
2019-05-11T09:37:44.062Z,23296.00
2019-05-11T09:38:44.041Z,22176.00
2019-05-11T09:39:44.007Z,22336.00
2019-05-11T09:40:44.012Z,23200.00
2019-05-11T09:41:43.989Z,25152.00
2019-05-11T09:42:44.010Z,23936.00
2019-05-11T09:43:44.016Z,26688.00
2019-05-11T09:44:43.984Z,25088.00
2019-05-11T09:45:48.502Z,28416.00
2019-05-11T09:46:44.935Z,28064.00
2019-05-11T09:47:43.946Z,29344.00
2019-05-11T09:48:43.945Z,28832.00
2019-05-11T09:49:47.958Z,30048.00
2019-05-11T09:50:44.919Z,30592.00
2019-05-11T09:51:43.914Z,29312.00
2019-05-11T09:52:43.859Z,31008.00
2019-05-11T09:53:43.892Z,30496.00
2019-05-11T09:54:43.849Z,33824.00
2019-05-11T09:55:43.836Z,31168.00
2019-05-11T09:56:43.821Z,33856.00
2019-05-11T09:57:43.822Z,34720.00
2019-05-11T09:58:43.842Z,33344.00
2019-05-11T09:59:43.808Z,31808.00
2019-05-11T10:00:43.776Z,34720.00
2019-05-11T10:01:43.796Z,34912.00
2019-05-11T10:02:43.800Z,36352.00
2019-05-11T10:03:43.801Z,35360.00
2019-05-11T10:04:43.748Z,34816.00
2019-05-11T10:05:43.786Z,29440.00
2019-05-11T10:06:43.738Z,33504.00
2019-05-11T10:07:43.722Z,31392.00
2019-05-11T10:08:43.697Z,32576.00
2019-05-11T10:09:43.838Z,30400.00
2019-05-11T10:10:43.730Z,30624.00
2019-05-11T10:11:43.644Z,31840.00
2019-05-11T10:12:43.676Z,29952.00
2019-05-11T10:13:43.636Z,30336.00
2019-05-11T10:14:43.640Z,26176.00
2019-05-11T10:15:43.621Z,30816.00
2019-05-11T10:16:43.606Z,31008.00
2019-05-11T10:17:43.604Z,31584.00
2019-05-11T10:18:43.614Z,27872.00
2019-05-11T10:19:46.490Z,27840.00
2019-05-11T10:20:43.625Z,25184.00
2019-05-11T10:21:43.548Z,21824.00
2019-05-11T10:22:43.535Z,23808.00
2019-05-11T10:23:43.523Z,23360.00
2019-05-11T10:24:43.568Z,24704.00
2019-05-11T10:25:43.550Z,19712.00
2019-05-11T10:26:43.501Z,20320.00
2019-05-11T10:27:43.494Z,23200.00
2019-05-11T10:28:43.479Z,20672.00
2019-05-11T10:29:43.530Z,19968.00
2019-05-11T10:30:43.498Z,19040.00
2019-05-11T10:31:43.471Z,17408.00
2019-05-11T10:32:43.431Z,17056.00
2019-05-11T10:33:43.449Z,21760.00
2019-05-11T10:34:43.404Z,23104.00
2019-05-11T10:35:43.426Z,21248.00
2019-05-11T10:36:43.398Z,19456.00
2019-05-11T10:37:43.391Z,17792.00
2019-05-11T10:38:43.366Z,16280.00
2019-05-11T10:39:43.366Z,15008.00
2019-05-11T10:40:43.390Z,18848.00
2019-05-11T10:41:43.336Z,18592.00
2019-05-11T10:42:43.336Z,19616.00
2019-05-11T10:43:43.333Z,17312.00
2019-05-11T10:44:43.361Z,16416.00
2019-05-11T10:45:43.316Z,17408.00
2019-05-11T10:46:43.294Z,16960.00
2019-05-11T10:47:43.254Z,14976.00
2019-05-11T10:48:43.257Z,17760.00
2019-05-11T10:49:43.234Z,16768.00
2019-05-11T10:50:43.264Z,14908.00
2019-05-11T10:51:43.255Z,15304.00
2019-05-11T10:52:43.218Z,14888.00
2019-05-11T10:53:43.193Z,15136.00
2019-05-11T10:54:43.243Z,14008.00
2019-05-11T10:55:43.186Z,15768.00
2019-05-11T10:56:43.211Z,17312.00
2019-05-11T10:57:43.183Z,15184.00
2019-05-11T10:58:43.143Z,13728.00
2019-05-11T10:59:43.142Z,16080.00
2019-05-11T11:00:43.173Z,12984.00
2019-05-11T11:01:43.143Z,13584.00
2019-05-11T11:02:43.153Z,12432.00
2019-05-11T11:03:43.109Z,13128.00
2019-05-11T11:04:43.101Z,13336.00
2019-05-11T11:05:43.107Z,13172.00
2019-05-11T11:06:43.069Z,15920.00
2019-05-11T11:07:43.089Z,16000.00
2019-05-11T11:08:43.161Z,18336.00
2019-05-11T11:09:43.062Z,19584.00
2019-05-11T11:10:43.018Z,18016.00
2019-05-11T11:11:43.030Z,21344.00
2019-05-11T11:12:43.031Z,22272.00
2019-05-11T11:13:43.006Z,20448.00
2019-05-11T11:14:42.977Z,21664.00
2019-05-11T11:15:42.977Z,21984.00
2019-05-11T11:16:43.094Z,22176.00
2019-05-11T11:17:42.977Z,20544.00
2019-05-11T11:18:42.989Z,22112.00
2019-05-11T11:19:42.957Z,24000.00
2019-05-11T11:20:42.913Z,22368.00
2019-05-11T11:21:42.908Z,19904.00
2019-05-11T11:22:44.296Z,17088.00
2019-05-11T11:23:42.883Z,18976.00
2019-05-11T11:24:42.913Z,22720.00
2019-05-11T11:25:42.867Z,20992.00
2019-05-11T11:26:42.857Z,23968.00
2019-05-11T11:27:42.861Z,21248.00
2019-05-11T11:28:42.863Z,22368.00
2019-05-11T11:29:42.879Z,22976.00
2019-05-11T11:30:42.835Z,22944.00
2019-05-11T11:31:42.829Z,24480.00
2019-05-11T11:32:42.784Z,23904.00
2019-05-11T11:33:42.813Z,24128.00
2019-05-11T11:34:42.765Z,23328.00
2019-05-11T11:35:42.753Z,25120.00
2019-05-11T11:36:42.747Z,22752.00
2019-05-11T11:37:42.765Z,20032.00
2019-05-11T11:38:42.737Z,24000.00
2019-05-11T11:39:42.765Z,25056.00
2019-05-11T11:40:43.035Z,26112.00
2019-05-11T11:41:42.678Z,21632.00
2019-05-11T11:42:42.699Z,26240.00
2019-05-11T11:43:42.650Z,26432.00
2019-05-11T11:44:42.710Z,25728.00
2019-05-11T11:45:42.663Z,27168.00
2019-05-11T11:46:52.093Z,23904.00
2019-05-11T11:47:43.694Z,25056.00
2019-05-11T11:48:42.650Z,22656.00
2019-05-11T11:49:42.629Z,22336.00
2019-05-11T11:50:42.590Z,22464.00
2019-05-11T11:51:42.595Z,24384.00
2019-05-11T11:52:45.054Z,19968.00
2019-05-11T11:53:42.562Z,19392.00
2019-05-11T11:54:42.571Z,23616.00
2019-05-11T11:55:42.557Z,20992.00
2019-05-11T11:56:42.542Z,20416.00
2019-05-11T11:57:42.558Z,23072.00
2019-05-11T11:58:42.525Z,21664.00
2019-05-11T11:59:42.538Z,21664.00
2019-05-11T12:00:42.540Z,21920.00
2019-05-11T12:01:42.501Z,21856.00
2019-05-11T12:02:42.521Z,22976.00
2019-05-11T12:03:42.449Z,22912.00
2019-05-11T12:04:42.461Z,22368.00
2019-05-11T12:05:42.462Z,23808.00
2019-05-11T12:06:42.426Z,25216.00
2019-05-11T12:07:42.509Z,27392.00
2019-05-11T12:08:42.399Z,27840.00
2019-05-11T12:09:42.391Z,26240.00
2019-05-11T12:10:42.411Z,27008.00
2019-05-11T12:11:42.365Z,28064.00
2019-05-11T12:12:42.366Z,27424.00
2019-05-11T12:13:42.400Z,25696.00
2019-05-11T12:14:42.344Z,23264.00
2019-05-11T12:15:42.391Z,22784.00